Time;durP1;ratioP1;P1;durP2;ratioP2;P2;SDS_P1;SDS_P2;PMS_P1;PMS_P2;Temp;Humidity;BMP_temperature;BMP_pressure;BME280_temperature;BME280_humidity;BME280_pressure;Samples;Min_cycle;Max_cycle;Signal;HPM_P1;HPM_P2
2022/06/13 00:01:12;;;;;;;;;;;12.40;99.90;;;;;;5020987;28;19917;-78
2022/06/13 00:03:39;;;;;;;;;;;12.40;99.90;;;;;;5013759;28;19996;-79
2022/06/13 00:06:06;;;;;;;;;;;12.40;99.90;;;;;;5032126;28;20639;-77
2022/06/13 00:08:32;;;;;;;;;;;12.30;99.90;;;;;;5025864;28;19923;-79
2022/06/13 00:10:57;;;;;;;;;;;12.20;99.90;;;;;;5024352;28;19921;-79
2022/06/13 00:13:26;;;;;;;;;;;12.20;99.90;;;;;;5049324;28;20362;-77
2022/06/13 00:15:51;;;;;;;;;;;12.20;99.90;;;;;;5034714;28;19998;-76
2022/06/13 00:18:17;;;;;;;;;;;12.30;99.90;;;;;;5050449;28;19959;-77
2022/06/13 00:20:43;;;;;;;;;;;12.30;99.90;;;;;;5018074;28;20379;-78
2022/06/13 00:23:08;;;;;;;;;;;12.30;99.90;;;;;;5067446;28;19925;-78
2022/06/13 00:25:34;;;;;;;;;;;12.20;99.90;;;;;;5021161;28;19918;-76
2022/06/13 00:27:59;;;;;;;;;;;12.20;99.90;;;;;;5035042;28;19951;-79
2022/06/13 00:30:25;;;;;;;;;;;12.20;99.90;;;;;;5026567;28;19924;-78
2022/06/13 00:32:50;;;;;;;;;;;12.20;99.90;;;;;;5006540;28;19952;-79
2022/06/13 00:35:17;;;;;;;;;;;12.20;99.90;;;;;;5037216;28;19966;-79
2022/06/13 00:37:42;;;;;;;;;;;12.20;99.90;;;;;;5037841;28;19917;-79
2022/06/13 00:40:10;;;;;;;;;;;12.20;99.90;;;;;;5014175;28;19963;-79
2022/06/13 00:42:35;;;;;;;;;;;12.20;99.90;;;;;;5029614;28;19916;-78
2022/06/13 00:45:13;;;;;;;;;;;12.20;99.90;;;;;;5032801;28;19917;-79
2022/06/13 00:47:41;;;;;;;;;;;12.20;99.90;;;;;;5025865;28;19920;-80
2022/06/13 00:50:08;;;;;;;;;;;12.20;99.90;;;;;;5014037;28;20307;-79
2022/06/13 00:52:42;;;;;;;;;;;12.20;99.90;;;;;;5024592;28;19928;-78
2022/06/13 00:55:12;;;;;;;;;;;12.30;99.90;;;;;;5050251;28;19956;-79
2022/06/13 00:57:38;;;;;;;;;;;12.30;99.90;;;;;;5017434;28;20486;-78
2022/06/13 01:00:06;;;;;;;;;;;12.40;99.90;;;;;;5010034;28;19920;-79
2022/06/13 01:02:32;;;;;;;;;;;12.40;99.90;;;;;;5070505;28;19999;-80
2022/06/13 01:04:58;;;;;;;;;;;12.60;99.90;;;;;;5023113;28;19924;-77
2022/06/13 01:07:24;;;;;;;;;;;12.60;99.90;;;;;;5037247;28;20008;-78
2022/06/13 01:12:35;;;;;;;;;;;12.70;99.90;;;;;;5017282;28;20347;-78
2022/06/13 01:15:04;;;;;;;;;;;12.70;99.90;;;;;;5049774;28;19924;-78
2022/06/13 01:17:29;;;;;;;;;;;12.80;99.90;;;;;;5059888;28;20285;-78
2022/06/13 01:20:21;;;;;;;;;;;12.80;99.90;;;;;;5020037;28;19971;-80
2022/06/13 01:23:12;;;;;;;;;;;12.90;99.90;;;;;;5014420;28;19917;-78
2022/06/13 01:26:01;;;;;;;;;;;12.90;99.90;;;;;;5041100;28;19940;-77
2022/06/13 01:28:52;;;;;;;;;;;13.00;99.90;;;;;;5034495;28;19920;-79
2022/06/13 01:31:36;;;;;;;;;;;13.00;99.90;;;;;;5020175;28;19921;-79
2022/06/13 01:34:11;;;;;;;;;;;12.90;99.90;;;;;;5035802;28;19917;-80
2022/06/13 01:36:37;;;;;;;;;;;13.00;99.90;;;;;;5036046;28;19971;-79
2022/06/13 01:39:08;;;;;;;;;;;13.00;99.90;;;;;;5016665;28;19940;-78
2022/06/13 01:41:34;;;;;;;;;;;13.00;99.90;;;;;;5047956;28;20323;-80
2022/06/13 01:44:05;;;;;;;;;;;13.00;99.90;;;;;;5017164;28;20051;-77
2022/06/13 01:46:41;;;;;;;;;;;13.00;99.90;;;;;;5056624;28;20446;-78
2022/06/13 01:49:16;;;;;;;;;;;13.10;99.90;;;;;;5039013;28;19921;-78
2022/06/13 01:51:50;;;;;;;;;;;13.10;99.90;;;;;;5025101;28;19962;-80
2022/06/13 01:54:22;;;;;;;;;;;13.10;99.90;;;;;;5012712;28;19927;-77
2022/06/13 01:57:00;;;;;;;;;;;13.10;99.90;;;;;;5030873;28;19917;-78
2022/06/13 01:59:25;;;;;;;;;;;13.10;99.90;;;;;;5045115;28;19924;-80
2022/06/13 02:02:12;;;;;;;;;;;13.10;99.90;;;;;;5036086;28;19917;-75
2022/06/13 02:04:41;;;;;;;;;;;13.10;99.90;;;;;;5021355;28;19917;-78
2022/06/13 02:07:08;;;;;;;;;;;13.20;99.90;;;;;;5035849;28;19924;-79
2022/06/13 02:09:36;;;;;;;;;;;13.20;99.90;;;;;;5019423;28;19925;-78
2022/06/13 02:12:03;;;;;;;;;;;13.20;99.90;;;;;;5032939;28;20287;-79
2022/06/13 02:14:32;;;;;;;;;;;13.30;99.90;;;;;;5050580;28;19917;-79
2022/06/13 02:17:02;;;;;;;;;;;13.30;99.90;;;;;;5027697;28;20000;-79
2022/06/13 02:19:38;;;;;;;;;;;13.40;99.90;;;;;;5054059;28;19916;-80
2022/06/13 02:22:21;;;;;;;;;;;13.40;99.90;;;;;;5051919;28;19925;-78
2022/06/13 02:24:52;;;;;;;;;;;13.40;99.90;;;;;;5033936;28;19917;-77
2022/06/13 02:27:18;;;;;;;;;;;13.50;99.90;;;;;;5042917;28;20023;-80
2022/06/13 02:29:47;;;;;;;;;;;13.40;99.90;;;;;;5030806;28;19931;-80
2022/06/13 02:32:15;;;;;;;;;;;13.50;99.90;;;;;;5012051;28;19921;-79
2022/06/13 02:34:43;;;;;;;;;;;13.40;99.90;;;;;;5028249;28;20350;-78
2022/06/13 02:37:12;;;;;;;;;;;13.50;99.90;;;;;;5017793;28;19960;-78
2022/06/13 02:39:41;;;;;;;;;;;13.40;99.90;;;;;;5034649;28;19916;-77
2022/06/13 02:42:12;;;;;;;;;;;13.40;99.90;;;;;;5045896;28;20417;-77
2022/06/13 02:44:40;;;;;;;;;;;13.40;99.90;;;;;;5048417;28;19924;-80
2022/06/13 02:47:11;;;;;;;;;;;13.40;99.90;;;;;;5019065;28;19971;-81
2022/06/13 02:49:51;;;;;;;;;;;13.40;99.90;;;;;;5049363;28;19921;-78
2022/06/13 02:52:21;;;;;;;;;;;13.30;99.90;;;;;;5034612;28;20634;-79
2022/06/13 02:54:55;;;;;;;;;;;13.40;99.90;;;;;;5068014;28;20396;-78
2022/06/13 02:57:31;;;;;;;;;;;13.30;99.90;;;;;;5052490;28;19917;-79
2022/06/13 03:00:00;;;;;;;;;;;13.30;99.90;;;;;;5017635;28;20637;-79
2022/06/13 03:02:44;;;;;;;;;;;13.30;99.90;;;;;;5024286;28;19921;-80
2022/06/13 03:05:24;;;;;;;;;;;13.40;99.90;;;;;;5049057;28;20255;-78
2022/06/13 03:08:06;;;;;;;;;;;13.30;99.90;;;;;;5021544;28;19983;-77
2022/06/13 03:10:42;;;;;;;;;;;13.30;99.90;;;;;;5039392;28;19927;-80
2022/06/13 03:13:13;;;;;;;;;;;13.30;99.90;;;;;;5033279;28;19916;-80
2022/06/13 03:15:50;;;;;;;;;;;12.80;99.90;;;;;;5017576;28;19974;-77
2022/06/13 03:18:20;;;;;;;;;;;13.30;99.90;;;;;;5050937;28;19924;-79
2022/06/13 03:20:45;;;;;;;;;;;13.30;99.90;;;;;;5014655;28;19928;-78
2022/06/13 03:23:13;;;;;;;;;;;13.40;99.90;;;;;;5019547;28;19918;-78
2022/06/13 03:25:51;;;;;;;;;;;13.30;99.90;;;;;;5033041;28;20442;-78
2022/06/13 03:28:41;;;;;;;;;;;13.30;99.90;;;;;;5017157;28;20372;-80
2022/06/13 03:31:08;;;;;;;;;;;13.30;99.90;;;;;;5017216;28;19986;-79
2022/06/13 03:33:42;;;;;;;;;;;13.20;99.90;;;;;;5032201;28;19924;-79
2022/06/13 03:36:17;;;;;;;;;;;13.30;99.90;;;;;;5005820;28;19917;-78
2022/06/13 03:38:47;;;;;;;;;;;13.10;99.90;;;;;;5036971;28;19920;-80
2022/06/13 03:41:14;;;;;;;;;;;13.20;99.90;;;;;;5005198;28;19921;-80
2022/06/13 03:43:46;;;;;;;;;;;13.10;99.90;;;;;;5016153;28;20346;-77
2022/06/13 03:46:14;;;;;;;;;;;13.10;99.90;;;;;;5025595;28;19917;-80
2022/06/13 03:48:43;;;;;;;;;;;13.00;99.90;;;;;;5049998;28;20320;-79
2022/06/13 03:51:15;;;;;;;;;;;13.10;99.90;;;;;;5015487;28;20012;-82
2022/06/13 03:54:19;;;;;;;;;;;13.10;99.90;;;;;;5021971;28;19927;-80
2022/06/13 03:57:04;;;;;;;;;;;13.10;99.90;;;;;;4968935;28;19918;-79
2022/06/13 03:59:51;;;;;;;;;;;13.10;99.90;;;;;;4967961;28;19961;-81
2022/06/13 04:02:18;;;;;;;;;;;13.20;99.90;;;;;;5000347;28;20232;-77
2022/06/13 04:04:45;;;;;;;;;;;13.20;99.90;;;;;;5030729;28;19932;-79
2022/06/13 04:07:11;;;;;;;;;;;13.50;99.90;;;;;;4970934;28;20416;-80
2022/06/13 04:09:48;;;;;;;;;;;13.30;99.90;;;;;;4991780;28;19930;-77
2022/06/13 04:12:35;;;;;;;;;;;13.40;99.90;;;;;;5019430;28;19924;-80
2022/06/13 04:15:21;;;;;;;;;;;13.50;99.90;;;;;;5060549;28;19917;-79
2022/06/13 04:18:05;;;;;;;;;;;13.50;99.90;;;;;;5022035;28;19927;-78
2022/06/13 04:20:39;;;;;;;;;;;13.60;99.90;;;;;;5019841;28;20424;-78
2022/06/13 04:23:24;;;;;;;;;;;13.70;99.90;;;;;;5031194;28;20284;-79
2022/06/13 04:25:56;;;;;;;;;;;13.70;99.90;;;;;;5028196;28;19925;-78
2022/06/13 04:28:24;;;;;;;;;;;13.80;99.90;;;;;;5022534;28;20031;-78
2022/06/13 04:30:51;;;;;;;;;;;13.80;99.90;;;;;;5011134;28;19921;-81
2022/06/13 04:33:30;;;;;;;;;;;13.80;99.90;;;;;;5010674;28;19944;-77
2022/06/13 04:35:56;;;;;;;;;;;13.80;99.90;;;;;;4999599;28;19917;-78
2022/06/13 04:38:22;;;;;;;;;;;14.00;99.90;;;;;;4988486;28;19967;-80
2022/06/13 04:40:53;;;;;;;;;;;14.00;99.90;;;;;;5040907;28;19963;-80
2022/06/13 04:43:20;;;;;;;;;;;14.10;99.90;;;;;;5023538;28;19917;-79
2022/06/13 04:45:51;;;;;;;;;;;14.10;99.90;;;;;;5013451;28;19925;-79
2022/06/13 04:48:17;;;;;;;;;;;14.10;99.90;;;;;;5013947;28;20012;-80
2022/06/13 04:50:44;;;;;;;;;;;14.20;99.90;;;;;;5005235;28;20036;-80
2022/06/13 04:53:14;;;;;;;;;;;14.10;99.90;;;;;;5016137;28;19921;-79
2022/06/13 04:55:44;;;;;;;;;;;14.20;99.90;;;;;;5058875;28;19924;-80
2022/06/13 04:58:17;;;;;;;;;;;14.20;99.90;;;;;;5041099;28;20434;-79
2022/06/13 05:00:44;;;;;;;;;;;14.20;99.90;;;;;;5022640;28;20334;-78
2022/06/13 05:03:18;;;;;;;;;;;14.20;99.90;;;;;;5033739;28;19940;-80
2022/06/13 05:05:46;;;;;;;;;;;14.20;99.90;;;;;;5006603;28;20375;-78
2022/06/13 05:08:12;;;;;;;;;;;14.00;99.90;;;;;;5019034;28;19925;-80
2022/06/13 05:10:39;;;;;;;;;;;13.90;99.90;;;;;;5059548;28;20264;-79
2022/06/13 05:13:07;;;;;;;;;;;13.80;99.90;;;;;;5047142;28;20013;-78
2022/06/13 05:15:33;;;;;;;;;;;13.60;99.90;;;;;;5034209;28;19972;-78
2022/06/13 05:17:58;;;;;;;;;;;13.50;99.90;;;;;;5066421;28;20389;-80
2022/06/13 05:20:44;;;;;;;;;;;13.40;99.90;;;;;;5021801;28;19922;-79
2022/06/13 05:23:32;;;;;;;;;;;13.40;99.90;;;;;;5009557;28;19918;-80
2022/06/13 05:25:59;;;;;;;;;;;13.30;99.90;;;;;;5014968;28;19917;-79
2022/06/13 05:28:26;;;;;;;;;;;13.20;99.90;;;;;;5030306;28;19917;-80
2022/06/13 05:30:53;;;;;;;;;;;13.20;99.90;;;;;;5024271;28;20374;-79
2022/06/13 05:33:24;;;;;;;;;;;13.20;99.90;;;;;;5027901;28;19963;-80
2022/06/13 05:35:53;;;;;;;;;;;13.30;99.90;;;;;;5018324;28;19993;-77
2022/06/13 05:38:30;;;;;;;;;;;13.40;99.90;;;;;;5014142;28;19956;-79
2022/06/13 05:40:56;;;;;;;;;;;13.60;99.90;;;;;;5024755;28;20406;-79
2022/06/13 05:43:22;;;;;;;;;;;13.70;99.90;;;;;;4983359;28;19921;-78
2022/06/13 05:45:47;;;;;;;;;;;14.00;99.90;;;;;;5018042;28;19917;-78
2022/06/13 05:48:14;;;;;;;;;;;14.20;99.90;;;;;;4996672;28;20414;-79
2022/06/13 05:50:40;;;;;;;;;;;14.50;99.90;;;;;;5013042;28;20355;-79
2022/06/13 05:53:06;;;;;;;;;;;14.60;99.90;;;;;;5029757;28;20021;-79
2022/06/13 05:55:34;;;;;;;;;;;14.60;99.90;;;;;;5013891;28;19917;-79
2022/06/13 05:58:00;;;;;;;;;;;14.50;99.90;;;;;;5029182;28;20374;-78
2022/06/13 06:00:32;;;;;;;;;;;14.40;99.90;;;;;;5022731;28;19944;-76
2022/06/13 06:02:58;;;;;;;;;;;14.20;99.90;;;;;;5032186;28;20366;-79
2022/06/13 06:05:23;;;;;;;;;;;14.00;99.90;;;;;;5033127;28;19970;-78
2022/06/13 06:07:49;;;;;;;;;;;14.10;99.90;;;;;;5029489;28;19929;-77
2022/06/13 06:10:19;;;;;;;;;;;14.10;99.90;;;;;;5004126;28;19921;-77
2022/06/13 06:12:45;;;;;;;;;;;14.30;99.90;;;;;;5031333;28;20059;-79
2022/06/13 06:15:11;;;;;;;;;;;14.40;99.90;;;;;;5016107;28;20358;-79
2022/06/13 06:17:37;;;;;;;;;;;14.60;99.90;;;;;;5048626;28;20007;-77
2022/06/13 06:20:02;;;;;;;;;;;14.80;99.90;;;;;;5058670;28;19940;-80
2022/06/13 06:22:28;;;;;;;;;;;15.10;99.90;;;;;;5028768;28;19918;-78
2022/06/13 06:24:53;;;;;;;;;;;15.20;99.90;;;;;;5017399;28;19923;-80
2022/06/13 06:27:19;;;;;;;;;;;15.00;99.90;;;;;;5043896;28;19917;-80
2022/06/13 06:29:45;;;;;;;;;;;14.80;99.90;;;;;;5035372;28;19925;-80
2022/06/13 06:32:10;;;;;;;;;;;14.60;99.90;;;;;;5015051;28;19916;-80
2022/06/13 06:34:36;;;;;;;;;;;14.40;99.90;;;;;;5017037;28;19957;-81
2022/06/13 06:37:01;;;;;;;;;;;14.10;99.90;;;;;;5012529;28;19925;-80
2022/06/13 06:39:27;;;;;;;;;;;14.00;99.90;;;;;;5025504;28;19932;-80
2022/06/13 06:41:52;;;;;;;;;;;13.90;99.90;;;;;;5048632;28;19964;-80
2022/06/13 06:44:18;;;;;;;;;;;14.00;99.90;;;;;;5029332;28;19960;-80
2022/06/13 06:46:44;;;;;;;;;;;14.10;99.90;;;;;;5018470;28;19921;-81
2022/06/13 06:49:10;;;;;;;;;;;14.20;99.90;;;;;;5032420;28;19969;-79
2022/06/13 06:51:35;;;;;;;;;;;14.30;99.90;;;;;;5027531;28;19916;-79
2022/06/13 07:02:14;;;;;;;;;;;14.60;99.90;;;;;;5031441;28;20528;-85
2022/06/13 07:04:40;;;;;;;;;;;14.60;99.90;;;;;;5015902;28;19921;-83
2022/06/13 07:07:05;;;;;;;;;;;14.40;99.90;;;;;;5027255;28;19921;-82
2022/06/13 07:09:31;;;;;;;;;;;14.20;99.90;;;;;;5036022;28;20016;-83
2022/06/13 07:11:57;;;;;;;;;;;14.00;99.90;;;;;;5003419;28;19927;-83
2022/06/13 07:14:27;;;;;;;;;;;14.00;99.90;;;;;;5031105;28;19917;-83
2022/06/13 07:16:53;;;;;;;;;;;14.30;99.90;;;;;;5011744;28;19917;-83
2022/06/13 07:19:18;;;;;;;;;;;14.40;99.90;;;;;;4995948;28;20389;-83
2022/06/13 07:21:44;;;;;;;;;;;14.70;99.90;;;;;;5013722;28;19918;-83
2022/06/13 07:24:10;;;;;;;;;;;14.90;99.90;;;;;;5013526;28;19917;-83
2022/06/13 07:26:36;;;;;;;;;;;15.10;99.90;;;;;;4996391;28;20374;-83
2022/06/13 07:29:02;;;;;;;;;;;15.20;99.90;;;;;;5012527;28;19968;-82
2022/06/13 07:31:32;;;;;;;;;;;15.30;99.90;;;;;;5018180;28;20668;-82
2022/06/13 07:33:58;;;;;;;;;;;15.30;99.90;;;;;;5050440;28;20366;-82
2022/06/13 07:36:23;;;;;;;;;;;15.20;99.90;;;;;;5017706;28;19917;-81
2022/06/13 07:38:49;;;;;;;;;;;15.00;99.90;;;;;;5040423;28;19921;-82
2022/06/13 07:41:17;;;;;;;;;;;14.80;99.90;;;;;;5009979;28;19917;-82
2022/06/13 07:43:43;;;;;;;;;;;14.80;99.90;;;;;;5028881;28;20000;-82
2022/06/13 07:46:09;;;;;;;;;;;14.80;99.90;;;;;;5011571;28;20278;-82
2022/06/13 07:48:35;;;;;;;;;;;14.90;99.90;;;;;;5016158;28;19924;-82
2022/06/13 07:51:02;;;;;;;;;;;14.80;99.90;;;;;;5011439;28;19925;-82
2022/06/13 07:53:27;;;;;;;;;;;14.80;99.90;;;;;;4995445;28;19921;-82
2022/06/13 07:55:53;;;;;;;;;;;14.90;99.90;;;;;;5025036;28;20420;-81
2022/06/13 07:58:20;;;;;;;;;;;15.20;99.90;;;;;;5018573;28;19917;-81
2022/06/13 08:00:48;;;;;;;;;;;15.40;99.90;;;;;;5025849;28;19917;-82
2022/06/13 08:03:16;;;;;;;;;;;15.50;99.90;;;;;;5012748;28;19921;-81
2022/06/13 08:05:42;;;;;;;;;;;15.60;99.90;;;;;;5020345;28;19952;-82
2022/06/13 08:08:10;;;;;;;;;;;15.60;99.90;;;;;;4996457;28;19921;-80
2022/06/13 08:10:39;;;;;;;;;;;15.70;99.90;;;;;;5020474;28;19931;-81
2022/06/13 08:13:05;;;;;;;;;;;15.80;99.90;;;;;;5029204;28;19971;-81
2022/06/13 08:15:31;;;;;;;;;;;15.90;99.90;;;;;;5056509;28;19921;-83
2022/06/13 08:17:57;;;;;;;;;;;16.00;99.90;;;;;;5024202;28;19921;-82
2022/06/13 08:20:25;;;;;;;;;;;16.00;99.90;;;;;;5027791;28;19917;-81
2022/06/13 08:22:54;;;;;;;;;;;15.90;99.90;;;;;;5017439;28;19917;-81
2022/06/13 08:25:26;;;;;;;;;;;15.80;99.90;;;;;;4999505;28;20063;-81
2022/06/13 08:27:52;;;;;;;;;;;15.80;99.90;;;;;;5010333;28;19917;-81
2022/06/13 08:30:18;;;;;;;;;;;15.90;99.90;;;;;;5017311;28;20271;-83
2022/06/13 08:32:43;;;;;;;;;;;16.10;99.90;;;;;;5025798;28;19982;-83
2022/06/13 08:35:10;;;;;;;;;;;16.10;99.90;;;;;;5031542;28;19921;-81
2022/06/13 08:37:35;;;;;;;;;;;16.10;99.90;;;;;;4998483;28;19921;-81
2022/06/13 08:40:01;;;;;;;;;;;16.20;99.90;;;;;;5011422;28;19947;-81
2022/06/13 08:42:37;;;;;;;;;;;16.20;99.90;;;;;;4999528;28;19925;-83
2022/06/13 08:45:09;;;;;;;;;;;16.20;99.90;;;;;;4998562;28;19924;-81
2022/06/13 08:47:49;;;;;;;;;;;16.00;99.90;;;;;;5020912;28;20255;-82
2022/06/13 08:50:17;;;;;;;;;;;16.10;99.90;;;;;;5022512;28;19928;-81
2022/06/13 08:52:49;;;;;;;;;;;16.10;99.90;;;;;;5014937;28;20031;-83
2022/06/13 08:55:33;;;;;;;;;;;15.90;99.90;;;;;;5042998;28;19987;-81
2022/06/13 08:58:17;;;;;;;;;;;15.90;99.90;;;;;;5018568;28;20623;-83
2022/06/13 09:00:50;;;;;;;;;;;15.70;99.90;;;;;;5016780;28;19924;-81
2022/06/13 09:03:38;;;;;;;;;;;15.80;99.90;;;;;;5019290;28;20278;-82
2022/06/13 09:06:23;;;;;;;;;;;16.00;99.90;;;;;;5006359;28;20358;-81
2022/06/13 09:08:55;;;;;;;;;;;16.20;99.90;;;;;;5011574;28;19921;-81
2022/06/13 09:11:33;;;;;;;;;;;16.30;99.90;;;;;;5002552;28;19929;-82
2022/06/13 09:14:11;;;;;;;;;;;16.30;99.90;;;;;;5022964;28;19917;-82
2022/06/13 09:16:38;;;;;;;;;;;16.40;99.90;;;;;;5047079;28;19948;-82
2022/06/13 09:19:11;;;;;;;;;;;16.40;99.90;;;;;;5006765;28;19928;-82
2022/06/13 09:21:45;;;;;;;;;;;16.70;99.90;;;;;;5021076;28;19921;-83
2022/06/13 09:24:14;;;;;;;;;;;16.70;99.90;;;;;;5033196;28;19916;-82
2022/06/13 09:26:47;;;;;;;;;;;16.60;99.90;;;;;;5048937;28;20252;-81
2022/06/13 09:29:19;;;;;;;;;;;16.60;99.90;;;;;;5017076;28;19956;-82
2022/06/13 09:31:48;;;;;;;;;;;16.60;99.90;;;;;;5015952;28;20286;-82
2022/06/13 09:34:36;;;;;;;;;;;16.50;99.90;;;;;;4997610;28;19964;-82
2022/06/13 09:37:08;;;;;;;;;;;16.40;99.90;;;;;;5008569;28;19925;-82
2022/06/13 09:39:33;;;;;;;;;;;16.60;99.90;;;;;;5020268;28;20286;-82
2022/06/13 09:42:14;;;;;;;;;;;16.70;99.90;;;;;;5027658;28;19921;-81
2022/06/13 09:44:40;;;;;;;;;;;16.50;99.90;;;;;;5027677;28;19928;-82
2022/06/13 09:47:19;;;;;;;;;;;16.50;99.90;;;;;;5009997;28;20291;-83
2022/06/13 09:49:56;;;;;;;;;;;16.70;99.90;;;;;;4995309;28;19925;-84
2022/06/13 09:52:34;;;;;;;;;;;17.00;99.90;;;;;;5040372;28;20298;-82
2022/06/13 09:55:21;;;;;;;;;;;17.40;99.90;;;;;;5030336;28;19967;-82
2022/06/13 09:58:12;;;;;;;;;;;17.70;99.90;;;;;;5040548;28;19921;-82
2022/06/13 10:00:38;;;;;;;;;;;17.40;99.90;;;;;;5026972;28;19925;-83
2022/06/13 10:03:03;;;;;;;;;;;16.80;99.90;;;;;;5027347;28;19917;-82
2022/06/13 10:05:45;;;;;;;;;;;16.50;99.90;;;;;;5026896;28;19917;-81
2022/06/13 10:08:14;;;;;;;;;;;16.40;99.90;;;;;;5010126;28;19917;-81
2022/06/13 10:10:48;;;;;;;;;;;16.40;99.90;;;;;;5021619;28;19968;-81
2022/06/13 10:13:32;;;;;;;;;;;16.70;99.90;;;;;;5031936;28;19927;-82
2022/06/13 10:15:58;;;;;;;;;;;16.90;99.90;;;;;;5032244;28;19921;-81
2022/06/13 10:18:24;;;;;;;;;;;17.00;99.90;;;;;;5046216;28;19967;-81
2022/06/13 10:20:53;;;;;;;;;;;17.00;99.90;;;;;;4996672;28;19917;-80
2022/06/13 10:23:29;;;;;;;;;;;17.00;99.90;;;;;;4998787;28;20346;-81
2022/06/13 10:25:54;;;;;;;;;;;17.10;99.90;;;;;;5004872;28;20000;-82
2022/06/13 10:28:29;;;;;;;;;;;16.90;99.90;;;;;;5034202;28;20337;-81
2022/06/13 10:31:06;;;;;;;;;;;16.80;99.90;;;;;;5022334;28;19933;-82
2022/06/13 10:33:42;;;;;;;;;;;17.00;99.90;;;;;;5047405;28;19923;-80
2022/06/13 10:36:24;;;;;;;;;;;17.20;99.90;;;;;;5039510;28;19918;-83
2022/06/13 10:38:59;;;;;;;;;;;17.30;99.90;;;;;;5018218;28;19952;-83
2022/06/13 10:41:26;;;;;;;;;;;17.50;99.90;;;;;;5021276;28;20228;-81
2022/06/13 10:43:52;;;;;;;;;;;17.50;99.90;;;;;;5019804;28;20282;-81
2022/06/13 10:46:18;;;;;;;;;;;17.50;99.90;;;;;;4996742;28;19921;-81
2022/06/13 10:48:49;;;;;;;;;;;17.50;99.90;;;;;;5016302;28;20020;-82
2022/06/13 10:51:22;;;;;;;;;;;17.70;99.90;;;;;;5014439;28;19972;-81
2022/06/13 10:53:59;;;;;;;;;;;18.00;99.90;;;;;;5045798;28;19925;-81
2022/06/13 10:56:27;;;;;;;;;;;18.10;99.90;;;;;;5015013;28;19971;-81
2022/06/13 10:58:55;;;;;;;;;;;18.30;99.90;;;;;;5015721;28;19921;-82
2022/06/13 11:01:22;;;;;;;;;;;18.30;99.90;;;;;;5034917;28;19993;-80
2022/06/13 11:03:57;;;;;;;;;;;17.90;99.90;;;;;;5003912;28;19967;-81
2022/06/13 11:06:25;;;;;;;;;;;17.80;99.90;;;;;;5049053;28;19917;-81
2022/06/13 11:08:59;;;;;;;;;;;17.60;99.90;;;;;;5013728;28;19982;-80
2022/06/13 11:11:33;;;;;;;;;;;17.40;99.90;;;;;;4998791;28;19971;-82
2022/06/13 11:13:59;;;;;;;;;;;17.10;99.90;;;;;;5013375;28;19925;-81
2022/06/13 11:24:58;;;;;;;;;;;17.80;99.90;;;;;;5015499;28;19927;-78
2022/06/13 11:27:40;;;;;;;;;;;18.00;99.90;;;;;;5056751;28;19917;-80
2022/06/13 11:30:24;;;;;;;;;;;18.30;99.90;;;;;;5016796;28;19925;-79
2022/06/13 11:33:10;;;;;;;;;;;18.40;99.90;;;;;;5014034;28;19988;-81
2022/06/13 11:35:42;;;;;;;;;;;18.40;99.90;;;;;;5007912;28;19917;-81
2022/06/13 11:38:14;;;;;;;;;;;18.20;99.90;;;;;;4995263;28;19918;-80
2022/06/13 11:40:40;;;;;;;;;;;17.90;99.90;;;;;;5039247;28;20243;-79
2022/06/13 11:43:16;;;;;;;;;;;17.70;99.90;;;;;;5051198;28;19947;-81
2022/06/13 11:45:42;;;;;;;;;;;17.60;99.90;;;;;;5012442;28;19971;-81
2022/06/13 11:48:13;;;;;;;;;;;17.50;99.90;;;;;;5011510;28;20311;-79
2022/06/13 11:50:39;;;;;;;;;;;17.60;99.90;;;;;;5013652;28;20306;-81
2022/06/13 11:55:59;;;;;;;;;;;17.60;99.90;;;;;;5032677;28;20337;-80
2022/06/13 11:58:27;;;;;;;;;;;17.80;99.90;;;;;;5038142;28;20273;-79
2022/06/13 12:00:54;;;;;;;;;;;17.70;99.90;;;;;;5009992;28;19917;-80
2022/06/13 12:03:24;;;;;;;;;;;17.70;99.90;;;;;;5029674;28;19921;-80
2022/06/13 12:05:55;;;;;;;;;;;17.80;99.90;;;;;;5025806;28;20301;-80
2022/06/13 12:08:23;;;;;;;;;;;18.00;99.90;;;;;;5018344;28;19920;-80
2022/06/13 12:10:57;;;;;;;;;;;18.20;99.90;;;;;;5017739;28;20290;-81
2022/06/13 12:13:22;;;;;;;;;;;18.10;99.90;;;;;;5016420;28;19933;-78
2022/06/13 12:16:12;;;;;;;;;;;18.00;99.90;;;;;;5023274;28;19917;-80
2022/06/13 12:18:56;;;;;;;;;;;18.20;99.90;;;;;;4959278;28;19917;-79
2022/06/13 12:21:31;;;;;;;;;;;18.30;99.90;;;;;;5028538;28;19924;-79
2022/06/13 12:23:56;;;;;;;;;;;18.30;99.90;;;;;;5045390;28;19926;-80
2022/06/13 12:26:25;;;;;;;;;;;18.20;99.90;;;;;;5016416;28;19940;-80
2022/06/13 12:29:03;;;;;;;;;;;17.90;99.90;;;;;;5015754;28;19926;-80
2022/06/13 12:31:37;;;;;;;;;;;18.20;99.90;;;;;;5027044;28;19921;-80
2022/06/13 12:34:14;;;;;;;;;;;18.00;99.90;;;;;;5004731;28;20297;-81
2022/06/13 12:36:55;;;;;;;;;;;18.10;99.90;;;;;;5034328;28;19923;-79
2022/06/13 12:39:38;;;;;;;;;;;18.20;99.90;;;;;;5015627;28;19924;-78
2022/06/13 12:42:06;;;;;;;;;;;18.40;99.90;;;;;;5014481;28;19917;-79
2022/06/13 12:44:32;;;;;;;;;;;18.70;99.90;;;;;;5024463;28;19917;-79
2022/06/13 12:46:58;;;;;;;;;;;18.80;99.90;;;;;;5018451;28;20286;-79
2022/06/13 12:49:35;;;;;;;;;;;18.80;99.90;;;;;;5014319;28;19917;-80
2022/06/13 12:52:07;;;;;;;;;;;18.80;99.90;;;;;;5017518;28;19917;-78
2022/06/13 12:54:47;;;;;;;;;;;18.80;99.90;;;;;;5054867;28;19916;-80
2022/06/13 12:57:23;;;;;;;;;;;18.70;99.90;;;;;;5055319;28;19923;-78
2022/06/13 13:00:00;;;;;;;;;;;18.80;99.90;;;;;;5035912;28;19916;-78
2022/06/13 13:02:44;;;;;;;;;;;19.20;99.90;;;;;;5036707;28;20469;-79
2022/06/13 13:05:17;;;;;;;;;;;19.50;99.90;;;;;;5020778;28;19924;-81
2022/06/13 13:08:03;;;;;;;;;;;19.50;99.90;;;;;;5035451;28;19924;-80
2022/06/13 13:10:58;;;;;;;;;;;19.40;99.90;;;;;;4976970;28;19921;-80
2022/06/13 13:13:43;;;;;;;;;;;19.10;99.90;;;;;;4976927;28;19918;-81
2022/06/13 13:16:12;;;;;;;;;;;18.70;99.90;;;;;;4976737;28;20012;-80
2022/06/13 13:19:00;;;;;;;;;;;18.40;99.90;;;;;;4969425;28;19924;-80
2022/06/13 13:21:32;;;;;;;;;;;18.50;99.90;;;;;;4950165;28;19921;-80
2022/06/13 13:24:12;;;;;;;;;;;18.70;99.90;;;;;;4976877;28;20306;-79
2022/06/13 13:26:37;;;;;;;;;;;18.70;99.90;;;;;;4974961;28;19929;-78
2022/06/13 13:29:22;;;;;;;;;;;18.40;99.90;;;;;;4966578;28;20339;-78
2022/06/13 13:31:56;;;;;;;;;;;18.40;99.90;;;;;;4984488;28;20423;-78
2022/06/13 13:34:31;;;;;;;;;;;18.40;99.90;;;;;;4958788;28;19918;-78
2022/06/13 13:37:06;;;;;;;;;;;18.60;99.90;;;;;;4982743;28;20337;-79
2022/06/13 13:39:40;;;;;;;;;;;19.10;99.90;;;;;;4983142;28;19922;-79
2022/06/13 13:42:11;;;;;;;;;;;19.30;99.90;;;;;;4976263;28;19921;-79
2022/06/13 13:44:51;;;;;;;;;;;19.10;99.90;;;;;;5010386;28;19928;-80
2022/06/13 13:47:22;;;;;;;;;;;18.80;99.90;;;;;;5043465;28;19921;-79
2022/06/13 13:50:06;;;;;;;;;;;18.50;99.20;;;;;;5022843;28;19921;-78
2022/06/13 13:52:51;;;;;;;;;;;18.40;99.90;;;;;;5016269;28;20007;-77
2022/06/13 13:55:24;;;;;;;;;;;18.50;99.90;;;;;;5005756;28;19920;-78
2022/06/13 13:57:58;;;;;;;;;;;18.80;99.90;;;;;;5018201;28;19929;-78
2022/06/13 14:00:38;;;;;;;;;;;18.90;99.90;;;;;;5011281;28;19921;-78
2022/06/13 14:03:03;;;;;;;;;;;18.80;99.90;;;;;;5015510;28;19926;-80
2022/06/13 14:05:38;;;;;;;;;;;19.00;99.90;;;;;;5019922;28;20003;-79
2022/06/13 14:08:12;;;;;;;;;;;19.40;99.90;;;;;;5035722;28;19962;-76
2022/06/13 14:10:52;;;;;;;;;;;19.80;99.90;;;;;;5035874;28;19974;-78
2022/06/13 14:13:25;;;;;;;;;;;19.90;99.00;;;;;;5018678;28;19926;-78
2022/06/13 14:15:51;;;;;;;;;;;19.60;99.90;;;;;;5069316;28;19967;-78
2022/06/13 14:18:21;;;;;;;;;;;19.20;99.90;;;;;;5030921;28;19960;-79
2022/06/13 14:20:47;;;;;;;;;;;18.90;99.90;;;;;;5010664;28;20251;-78
2022/06/13 14:23:17;;;;;;;;;;;18.60;99.90;;;;;;5001720;28;20003;-77
2022/06/13 14:25:45;;;;;;;;;;;18.20;99.90;;;;;;5025382;28;19921;-79
2022/06/13 14:28:12;;;;;;;;;;;18.20;99.90;;;;;;5012335;28;19917;-80
2022/06/13 14:36:10;;;;;;;;;;;19.30;98.20;;;;;;5034474;28;20421;-79
2022/06/13 14:38:38;;;;;;;;;;;19.30;99.60;;;;;;5002293;28;19917;-79
2022/06/13 14:41:08;;;;;;;;;;;19.80;99.30;;;;;;5007646;28;19918;-78
2022/06/13 14:43:42;;;;;;;;;;;20.40;98.50;;;;;;5023931;28;19920;-79
2022/06/13 14:46:23;;;;;;;;;;;20.60;97.10;;;;;;5034496;28;19917;-79
2022/06/13 14:48:49;;;;;;;;;;;21.20;96.20;;;;;;5028712;28;20474;-78
2022/06/13 14:51:14;;;;;;;;;;;21.50;93.80;;;;;;5044642;28;19967;-79
2022/06/13 14:53:45;;;;;;;;;;;21.70;94.10;;;;;;5009036;28;19976;-79
2022/06/13 14:56:10;;;;;;;;;;;22.10;93.50;;;;;;5044798;28;19917;-79
2022/06/13 14:58:42;;;;;;;;;;;22.40;90.70;;;;;;5021542;28;20389;-80
2022/06/13 15:01:19;;;;;;;;;;;22.90;91.00;;;;;;5045408;28;20047;-79
2022/06/13 15:04:08;;;;;;;;;;;22.80;84.70;;;;;;5049407;28;19948;-79
2022/06/13 15:06:33;;;;;;;;;;;23.00;88.90;;;;;;4997136;28;19916;-79
2022/06/13 15:09:12;;;;;;;;;;;23.50;86.80;;;;;;5017787;28;20016;-78